createdAt,value
2023-03-22T04:58:05.033Z,100502.59
2023-03-22T05:01:08.776Z,100502.59
2023-03-22T05:04:12.286Z,100507.50
2023-03-22T05:07:15.564Z,100508.56
2023-03-22T05:10:18.124Z,100512.59
2023-03-22T05:13:21.900Z,100516.34
2023-03-22T05:16:25.054Z,100519.25
2023-03-22T05:19:29.013Z,100532.34
2023-03-22T05:22:31.152Z,100532.59
2023-03-22T05:25:34.155Z,100525.66
2023-03-22T05:28:37.562Z,100517.06
2023-03-22T05:31:40.545Z,100519.75
2023-03-22T05:34:45.450Z,100526.88
2023-03-22T05:37:48.849Z,100522.88
2023-03-22T05:40:51.367Z,100529.53
2023-03-22T05:43:54.104Z,100531.34
2023-03-22T05:46:56.447Z,100539.59
2023-03-22T05:49:59.588Z,100535.25
2023-03-22T05:53:03.911Z,100531.00
2023-03-22T05:56:10.131Z,100534.72
2023-03-22T05:59:12.993Z,100535.75
2023-03-22T06:02:15.615Z,100539.78
2023-03-22T06:05:18.415Z,100543.13
2023-03-22T06:08:24.136Z,100550.38
2023-03-22T06:11:27.783Z,100549.81
2023-03-22T06:14:30.373Z,100555.03
2023-03-22T06:17:34.263Z,100552.63
2023-03-22T06:20:36.934Z,100565.38
2023-03-22T06:23:43.567Z,100556.91
2023-03-22T06:26:46.644Z,100554.38
2023-03-22T06:29:50.993Z,100549.97
2023-03-22T06:32:54.841Z,100553.97
2023-03-22T06:35:58.887Z,100562.53
2023-03-22T06:39:02.891Z,100561.97
2023-03-22T06:42:06.332Z,100568.69
2023-03-22T06:45:09.333Z,100567.13
2023-03-22T06:48:12.188Z,100564.53
2023-03-22T06:51:17.599Z,100561.84
2023-03-22T06:54:20.403Z,100565.72
2023-03-22T06:57:22.555Z,100569.94
2023-03-22T07:00:25.026Z,100563.94
2023-03-22T07:03:27.629Z,100565.87
2023-03-22T07:06:32.172Z,100576.13
2023-03-22T07:09:34.634Z,100585.13
2023-03-22T07:12:37.378Z,100578.03
2023-03-22T07:15:41.815Z,100566.94
2023-03-22T07:18:45.008Z,100571.69
2023-03-22T07:21:47.617Z,100587.31
2023-03-22T07:24:57.670Z,100584.22
2023-03-22T07:28:01.511Z,100591.81
2023-03-22T07:31:07.256Z,100587.47
2023-03-22T07:34:10.288Z,100573.81
2023-03-22T07:37:13.470Z,100591.91
2023-03-22T07:40:16.210Z,100591.03
2023-03-22T07:43:19.228Z,100582.16
2023-03-22T07:46:21.588Z,100578.63
2023-03-22T07:49:24.184Z,100579.94
2023-03-22T07:52:28.280Z,100580.44
2023-03-22T07:55:30.720Z,100587.16
2023-03-22T07:58:34.619Z,100588.38
2023-03-22T08:01:38.372Z,100591.75
2023-03-22T08:04:41.700Z,100583.94
2023-03-22T08:07:45.796Z,100579.00
2023-03-22T08:10:49.465Z,100578.63
2023-03-22T08:13:51.836Z,100582.09
2023-03-22T08:16:54.502Z,100579.41
2023-03-22T08:19:57.660Z,100576.91
2023-03-22T08:23:01.989Z,100575.66
2023-03-22T08:26:04.521Z,100572.97
2023-03-22T08:29:08.076Z,100580.06
2023-03-22T08:32:11.447Z,100573.75
2023-03-22T08:35:13.952Z,100578.66
2023-03-22T08:38:16.732Z,100583.56
2023-03-22T08:41:19.678Z,100594.53
2023-03-22T08:44:22.005Z,100589.72
2023-03-22T08:47:24.692Z,100595.22
2023-03-22T08:50:27.428Z,100600.94
2023-03-22T08:53:30.560Z,100591.97
2023-03-22T08:56:38.349Z,100588.97
2023-03-22T08:59:42.759Z,100588.66
2023-03-22T09:02:45.880Z,100592.03
2023-03-22T09:05:48.305Z,100588.16
2023-03-22T09:08:52.127Z,100580.16
2023-03-22T09:11:56.320Z,100576.94
2023-03-22T09:14:58.857Z,100578.97
2023-03-22T09:18:02.005Z,100585.87
2023-03-22T09:21:05.841Z,100585.56
2023-03-22T09:24:10.921Z,100583.06
2023-03-22T09:27:14.019Z,100586.31
2023-03-22T09:30:17.301Z,100581.66
2023-03-22T09:33:19.710Z,100575.66
2023-03-22T09:36:22.905Z,100577.75
2023-03-22T09:39:25.821Z,100582.03
2023-03-22T09:42:46.040Z,100572.53
2023-03-22T09:45:51.357Z,100571.03
2023-03-22T09:48:53.816Z,100573.66
2023-03-22T09:51:56.273Z,100567.19
2023-03-22T09:54:59.055Z,100560.00
2023-03-22T09:58:26.132Z,100568.22
2023-03-22T10:01:40.591Z,100571.53
2023-03-22T10:05:10.479Z,100567.91
2023-03-22T10:08:35.039Z,100563.91
2023-03-22T10:12:19.655Z,100565.91
2023-03-22T10:15:32.069Z,100561.47
2023-03-22T10:18:38.941Z,100570.88
2023-03-22T10:21:41.730Z,100566.19
2023-03-22T10:24:46.594Z,100562.50
2023-03-22T10:27:51.362Z,100567.91
2023-03-22T10:30:56.308Z,100555.34
2023-03-22T10:34:05.703Z,100559.94
2023-03-22T10:37:14.637Z,100555.75
2023-03-22T10:40:32.066Z,100560.97
2023-03-22T10:43:39.358Z,100564.72
2023-03-22T10:46:42.530Z,100562.03
2023-03-22T10:49:53.175Z,100553.81
2023-03-22T10:53:37.325Z,100558.59
2023-03-22T10:56:40.487Z,100561.72
2023-03-22T10:59:51.545Z,100553.62
2023-03-22T11:02:59.871Z,100551.41
2023-03-22T11:06:12.453Z,100553.00
2023-03-22T11:09:23.832Z,100549.00
2023-03-22T11:12:27.105Z,100541.78
2023-03-22T11:15:33.839Z,100538.16
2023-03-22T11:18:36.059Z,100535.78
2023-03-22T11:21:41.860Z,100532.28
2023-03-22T11:24:46.818Z,100530.97
2023-03-22T11:27:53.361Z,100523.31
2023-03-22T11:31:11.344Z,100521.91
2023-03-22T11:34:19.501Z,100516.97
2023-03-22T11:37:22.318Z,100521.78
2023-03-22T11:40:52.088Z,100515.75
2023-03-22T11:43:57.951Z,100517.38
2023-03-22T11:47:02.825Z,100500.25
2023-03-22T11:50:09.408Z,100498.53
2023-03-22T11:53:18.420Z,100492.00
2023-03-22T11:56:27.929Z,100493.31
2023-03-22T11:59:47.408Z,100498.59
2023-03-22T12:03:17.189Z,100500.19
2023-03-22T12:06:28.907Z,100494.03
2023-03-22T12:09:44.646Z,100495.00
2023-03-22T12:12:51.333Z,100502.50
2023-03-22T12:15:58.021Z,100496.84
2023-03-22T12:19:17.341Z,100498.31
2023-03-22T12:22:43.128Z,100490.84
2023-03-22T12:25:55.126Z,100488.03
2023-03-22T12:29:18.507Z,100487.44
2023-03-22T12:32:32.490Z,100485.41
2023-03-22T12:35:39.380Z,100486.06
2023-03-22T12:38:51.556Z,100488.31
2023-03-22T12:41:57.870Z,100478.66
2023-03-22T12:45:12.935Z,100480.25
2023-03-22T12:48:33.219Z,100475.78
2023-03-22T12:51:36.865Z,100479.75
2023-03-22T12:54:40.615Z,100478.00
2023-03-22T12:57:43.039Z,100467.50
2023-03-22T13:00:51.154Z,100468.34
2023-03-22T13:03:54.879Z,100461.31
2023-03-22T13:07:14.121Z,100462.31
2023-03-22T13:10:36.512Z,100454.66
2023-03-22T13:13:44.689Z,100447.66
2023-03-22T13:16:55.865Z,100437.47
2023-03-22T13:20:23.594Z,100442.41
2023-03-22T13:23:27.705Z,100427.78
2023-03-22T13:26:46.339Z,100434.44
2023-03-22T13:29:53.987Z,100431.91
2023-03-22T13:33:08.517Z,100428.25
2023-03-22T13:36:25.723Z,100432.69
2023-03-22T13:39:34.456Z,100427.75
2023-03-22T13:42:40.206Z,100423.31
2023-03-22T13:46:07.460Z,100431.09
2023-03-22T13:49:22.836Z,100425.19
2023-03-22T13:52:34.452Z,100425.69
2023-03-22T13:55:42.196Z,100413.13
2023-03-22T13:58:53.771Z,100406.94
2023-03-22T14:01:59.023Z,100410.56
2023-03-22T14:05:13.454Z,100408.00
2023-03-22T14:08:29.173Z,100401.66
2023-03-22T14:11:45.987Z,100400.06
2023-03-22T14:14:56.822Z,100392.72
2023-03-22T14:18:16.057Z,100399.75
2023-03-22T14:21:23.749Z,100391.78
